Time;durP1;ratioP1;P1;durP2;ratioP2;P2;SDS_P1;SDS_P2;PMS_P1;PMS_P2;Temp;Humidity;BMP_temperature;BMP_pressure;BME280_temperature;BME280_humidity;BME280_pressure;Samples;Min_cycle;Max_cycle;Signal;HPM_P1;HPM_P2
2023/05/06 00:01:50;;;;;;;12.80;6.00;;;;;;;9.74;64.67;100400.08;134217;1297;23114;-76
2023/05/06 00:05:02;;;;;;;12.70;6.00;;;;;;;9.74;64.86;100398.37;134227;1297;23002;-76
2023/05/06 00:08:16;;;;;;;8.10;5.40;;;;;;;9.73;64.89;100405.92;134220;1302;22142;-77
2023/05/06 00:11:50;;;;;;;;;;;;;;;;;;;;;
2023/05/06 00:15:29;;;;;;;8.80;5.40;;;;;;;9.68;64.94;100402.86;134235;1297;23041;-77
2023/05/06 00:18:40;;;;;;;10.70;5.60;;;;;;;9.63;65.16;100395.52;134196;1297;22446;-76
2023/05/06 00:21:47;;;;;;;10.70;4.80;;;;;;;9.61;65.16;100393.80;133940;1297;23296;-76
2023/05/06 00:25:43;;;;;;;7.90;5.30;;;;;;;9.59;65.47;100384.30;134234;1298;22367;-77
2023/05/06 00:28:41;;;;;;;9.30;5.10;;;;;;;9.56;65.47;100378.57;134204;1297;22455;-76
2023/05/06 00:31:44;;;;;;;14.40;5.50;;;;;;;9.56;65.41;100371.86;134084;1298;22423;-76
2023/05/06 00:34:45;;;;;;;11.60;5.20;;;;;;;9.56;65.51;100368.23;134208;1297;23246;-76
2023/05/06 00:37:59;;;;;;;8.80;5.60;;;;;;;9.55;65.41;100364.23;134211;1297;22406;-76
2023/05/06 00:41:03;;;;;;;7.60;5.00;;;;;;;9.54;65.85;100361.66;134109;1298;22497;-74
2023/05/06 00:44:07;;;;;;;8.60;4.70;;;;;;;9.54;65.78;100357.95;134114;1299;22434;-77
2023/05/06 00:47:11;;;;;;;8.30;5.10;;;;;;;9.55;65.95;100358.42;134211;1298;22520;-76
2023/05/06 00:50:13;;;;;;;10.40;4.90;;;;;;;9.56;65.99;100360.05;134097;1299;22560;-76
2023/05/06 00:53:21;;;;;;;10.60;5.40;;;;;;;9.56;66.05;100364.42;134052;1298;22226;-76
2023/05/06 00:56:24;;;;;;;11.30;5.80;;;;;;;9.58;66.12;100363.38;134205;1298;22448;-78
2023/05/06 00:59:28;;;;;;;11.90;5.10;;;;;;;9.59;66.23;100368.05;134143;1299;22926;-76
2023/05/06 01:02:32;;;;;;;7.90;4.90;;;;;;;9.60;66.30;100366.20;134248;1298;22945;-76
2023/05/06 01:06:01;;;;;;;13.40;6.10;;;;;;;9.61;66.47;100361.68;134114;1299;22428;-76
2023/05/06 01:09:28;;;;;;;11.10;5.20;;;;;;;9.62;66.66;100360.16;134192;1297;22218;-77
2023/05/06 01:12:39;;;;;;;8.90;5.40;;;;;;;9.63;66.55;100357.00;134259;1297;22155;-76
2023/05/06 01:16:00;;;;;;;13.10;5.60;;;;;;;9.63;66.57;100353.27;134234;1297;22428;-76
2023/05/06 01:19:40;;;;;;;14.80;5.70;;;;;;;9.64;66.72;100356.60;134211;1298;22603;-76
2023/05/06 01:23:00;;;;;;;;;;;;;;;;;;;;;
2023/05/06 01:26:01;;;;;;;14.50;5.10;;;;;;;9.67;66.57;100370.99;134229;1298;22483;-76
2023/05/06 01:29:12;;;;;;;;;;;;;;;;;;;;;
2023/05/06 01:32:45;;;;;;;8.30;4.80;;;;;;;9.69;66.53;100376.75;134245;1297;22324;-76
2023/05/06 01:36:08;;;;;;;8.60;4.70;;;;;;;9.70;66.52;100383.86;133965;1301;22452;-77
2023/05/06 01:39:39;;;;;;;11.70;5.10;;;;;;;9.72;66.48;100380.48;134093;1298;22436;-76
2023/05/06 01:42:48;;;;;;;9.80;5.50;;;;;;;9.73;66.64;100374.75;133919;1298;22402;-76
2023/05/06 01:45:52;;;;;;;11.50;6.10;;;;;;;9.74;66.57;100373.80;134126;1297;22516;-76
2023/05/06 01:49:00;;;;;;;13.90;5.30;;;;;;;9.74;66.56;100372.03;134243;1297;22366;-77
2023/05/06 01:52:13;;;;;;;8.30;5.30;;;;;;;9.72;66.62;100365.53;134213;1293;22548;-76
2023/05/06 01:55:33;;;;;;;;;;;;;;;;;;;;;
2023/05/06 01:58:55;;;;;;;14.60;6.10;;;;;;;9.71;66.92;100360.98;134195;1297;22375;-77
2023/05/06 02:01:59;;;;;;;7.40;4.60;;;;;;;9.71;66.84;100355.58;134236;1298;22993;-76
2023/05/06 02:05:12;;;;;;;9.20;5.00;;;;;;;9.70;66.93;100348.76;134123;1297;22358;-77
2023/05/06 02:08:16;;;;;;;10.00;5.00;;;;;;;9.68;67.07;100345.40;133944;1301;23062;-76
2023/05/06 02:11:39;;;;;;;7.60;5.40;;;;;;;9.67;67.24;100336.92;134069;1301;23113;-77
2023/05/06 02:14:44;;;;;;;11.90;5.00;;;;;;;9.64;67.07;100334.48;134111;1297;22423;-76
2023/05/06 02:17:47;;;;;;;10.90;5.20;;;;;;;9.62;67.08;100338.46;134235;1297;24207;-77
2023/05/06 02:20:51;;;;;;;8.30;5.00;;;;;;;9.60;67.43;100341.08;134112;1297;22187;-76
2023/05/06 02:23:52;;;;;;;9.90;5.10;;;;;;;9.60;67.29;100338.42;134216;1297;23025;-76
2023/05/06 02:26:57;;;;;;;10.10;5.10;;;;;;;9.58;67.48;100334.93;134105;1298;23377;-77
2023/05/06 02:30:18;;;;;;;6.10;4.90;;;;;;;9.56;67.17;100334.42;134131;1297;22356;-76
2023/05/06 02:33:25;;;;;;;10.40;5.20;;;;;;;9.55;67.29;100333.69;134241;1298;22436;-76
2023/05/06 02:36:26;;;;;;;8.90;5.00;;;;;;;9.54;67.54;100327.25;134084;1304;22527;-77
2023/05/06 02:39:40;;;;;;;10.60;5.10;;;;;;;9.53;67.44;100326.13;134086;1298;22429;-76
2023/05/06 02:43:02;;;;;;;8.20;5.60;;;;;;;9.51;67.62;100319.28;134102;1291;22441;-76
2023/05/06 02:46:15;;;;;;;;;;;;;;;;;;;;;
2023/05/06 02:49:23;;;;;;;11.80;5.80;;;;;;;9.46;67.55;100316.20;134241;1297;22384;-77
2023/05/06 02:52:24;;;;;;;13.40;5.00;;;;;;;9.44;67.68;100315.73;134111;1298;22375;-76
2023/05/06 02:55:25;;;;;;;7.80;5.30;;;;;;;9.41;67.89;100320.05;134266;1297;22396;-76
2023/05/06 02:58:46;;;;;;;10.40;5.00;;;;;;;9.38;68.16;100312.60;134265;1297;22474;-77
2023/05/06 03:01:47;;;;;;;11.30;5.20;;;;;;;9.36;68.27;100313.29;134115;1298;22417;-77
2023/05/06 03:04:48;;;;;;;10.50;5.60;;;;;;;9.34;68.31;100309.60;134214;1297;22244;-76
2023/05/06 03:08:00;;;;;;;;;;;;;;;;;;;;;
2023/05/06 03:11:30;;;;;;;;;;;;;;;;;;;;;
2023/05/06 03:14:37;;;;;;;10.50;5.70;;;;;;;9.28;68.32;100309.86;134026;1301;22397;-76
2023/05/06 03:17:45;;;;;;;10.80;5.40;;;;;;;9.26;68.58;100307.81;134098;1298;22859;-76
2023/05/06 03:20:55;;;;;;;8.40;4.80;;;;;;;9.24;68.48;100310.64;134204;1298;23237;-76
2023/05/06 03:24:02;;;;;;;12.10;5.10;;;;;;;9.22;68.40;100309.23;133960;1298;22527;-76
2023/05/06 03:27:03;;;;;;;10.40;5.20;;;;;;;9.21;68.74;100305.48;134219;1297;22344;-76
2023/05/06 03:30:05;;;;;;;10.70;5.50;;;;;;;9.19;68.79;100307.52;134108;1297;22782;-76
2023/05/06 03:33:07;;;;;;;10.50;5.80;;;;;;;9.18;68.73;100305.77;134083;1299;22433;-77
2023/05/06 03:36:08;;;;;;;11.00;5.40;;;;;;;9.17;68.87;100312.01;134084;1298;22437;-76
2023/05/06 03:39:09;;;;;;;9.60;5.70;;;;;;;9.16;68.83;100309.29;134088;1291;22212;-76
2023/05/06 03:42:11;;;;;;;9.60;5.20;;;;;;;9.16;68.83;100308.98;134106;1298;22462;-77
2023/05/06 03:45:12;;;;;;;18.10;5.40;;;;;;;9.15;68.71;100309.44;134215;1297;22228;-76
2023/05/06 03:48:17;;;;;;;8.80;4.80;;;;;;;9.15;68.85;100311.55;134104;1298;22544;-76
2023/05/06 03:51:18;;;;;;;10.50;5.50;;;;;;;9.15;68.98;100314.93;133957;1297;22909;-76
2023/05/06 03:54:19;;;;;;;17.00;5.30;;;;;;;9.15;68.91;100321.75;134074;1297;22374;-76
2023/05/06 03:57:23;;;;;;;8.30;5.30;;;;;;;9.17;68.70;100327.54;134147;1297;24534;-76
2023/05/06 04:01:05;;;;;;;10.30;5.40;;;;;;;9.22;68.62;100343.55;134095;1297;22454;-76
2023/05/06 04:04:47;;;;;;;7.50;5.40;;;;;;;9.27;68.45;100356.58;134091;1298;22222;-77
2023/05/06 04:07:54;;;;;;;10.80;5.20;;;;;;;9.36;68.56;100372.05;134121;1297;22381;-77
2023/05/06 04:10:56;;;;;;;9.20;5.60;;;;;;;9.40;68.36;100375.58;134164;1298;23170;-76
2023/05/06 04:14:16;;;;;;;;;;;;;;;;;;;;;
2023/05/06 04:17:38;;;;;;;6.30;4.80;;;;;;;9.45;68.16;100382.58;134111;1301;22444;-77
2023/05/06 04:20:42;;;;;;;8.60;5.30;;;;;;;9.50;68.20;100388.38;134092;1297;22421;-76
2023/05/06 04:24:27;;;;;;;10.40;5.00;;;;;;;9.55;68.16;100396.73;134090;1298;22445;-77
2023/05/06 04:28:16;;;;;;;;;;;;;;;;;;;;;
2023/05/06 04:31:19;;;;;;;10.60;5.80;;;;;;;9.56;67.95;100387.30;134032;1298;22377;-76
2023/05/06 04:34:26;;;;;;;12.90;5.40;;;;;;;9.51;67.97;100385.84;134262;1297;22422;-76
2023/05/06 04:37:52;;;;;;;6.40;4.80;;;;;;;9.46;68.30;100376.80;134091;1291;23113;-76
2023/05/06 04:41:09;;;;;;;;;;;;;;;;;;;;;
2023/05/06 04:44:40;;;;;;;9.00;5.50;;;;;;;9.37;68.59;100360.33;134207;1298;22273;-76
2023/05/06 04:47:45;;;;;;;8.20;5.10;;;;;;;9.31;68.74;100354.46;134240;1297;22462;-76
2023/05/06 04:50:48;;;;;;;9.60;6.10;;;;;;;9.29;68.83;100336.98;134130;1298;22401;-76
2023/05/06 04:53:58;;;;;;;7.30;5.00;;;;;;;9.28;69.20;100326.00;134012;1298;22404;-76
2023/05/06 04:57:00;;;;;;;8.50;5.30;;;;;;;9.24;69.54;100313.83;134189;1298;22343;-77
2023/05/06 05:00:06;;;;;;;12.20;5.20;;;;;;;9.19;69.93;100302.69;133967;1301;22425;-77
2023/05/06 05:03:08;;;;;;;8.50;5.10;;;;;;;9.16;70.15;100298.04;133984;1301;22371;-76
2023/05/06 05:06:20;;;;;;;8.60;5.10;;;;;;;9.15;70.19;100283.66;134272;1297;22353;-76
2023/05/06 05:09:25;;;;;;;11.20;5.60;;;;;;;9.14;70.16;100270.92;134249;1298;22379;-76
2023/05/06 05:12:26;;;;;;;13.00;5.90;;;;;;;9.11;70.58;100260.77;134246;1297;22289;-76
2023/05/06 05:15:27;;;;;;;8.40;5.00;;;;;;;9.06;70.69;100257.52;134124;1298;22378;-76
2023/05/06 05:18:48;;;;;;;10.80;5.60;;;;;;;9.03;70.90;100255.55;134103;1298;22452;-77
2023/05/06 05:21:53;;;;;;;12.20;5.90;;;;;;;9.01;71.34;100248.21;134115;1298;23040;-76
2023/05/06 05:24:59;;;;;;;14.10;5.80;;;;;;;8.98;71.35;100251.59;134130;1301;22256;-76
2023/05/06 05:28:00;;;;;;;10.20;5.20;;;;;;;8.98;71.41;100245.79;134228;1297;22271;-76
2023/05/06 05:31:03;;;;;;;6.80;5.40;;;;;;;9.01;71.22;100258.21;134158;1298;22368;-76
2023/05/06 05:34:11;;;;;;;10.40;5.20;;;;;;;9.05;71.04;100282.89;134008;1301;23034;-76
2023/05/06 05:37:12;;;;;;;9.90;6.20;;;;;;;9.10;70.85;100288.52;134243;1298;22445;-76
2023/05/06 05:40:13;;;;;;;7.60;5.80;;;;;;;9.16;70.98;100273.77;134110;1298;22480;-76
2023/05/06 05:43:35;;;;;;;7.10;5.00;;;;;;;9.20;71.01;100257.36;133979;1299;23016;-76
2023/05/06 05:46:58;;;;;;;8.80;5.40;;;;;;;9.23;71.16;100250.76;134111;1298;22203;-76
2023/05/06 05:50:00;;;;;;;14.00;5.80;;;;;;;9.23;71.07;100253.02;134275;1298;22371;-76
2023/05/06 05:53:00;;;;;;;9.20;5.20;;;;;;;9.24;70.82;100249.09;134235;1301;22376;-76
2023/05/06 05:56:01;;;;;;;8.40;5.20;;;;;;;9.25;70.72;100262.23;134266;1298;22439;-76
2023/05/06 05:59:06;;;;;;;12.60;6.40;;;;;;;9.26;70.52;100274.60;134135;1291;22425;-76
2023/05/06 06:02:09;;;;;;;8.50;5.40;;;;;;;9.32;70.40;100283.30;134147;1301;22418;-76
2023/05/06 06:05:13;;;;;;;7.50;5.30;;;;;;;9.37;70.31;100284.56;134240;1298;22318;-77
2023/05/06 06:08:17;;;;;;;8.90;5.80;;;;;;;9.40;70.31;100281.70;134137;1297;22366;-76
2023/05/06 06:11:20;;;;;;;9.10;5.50;;;;;;;9.44;70.25;100286.23;134251;1298;23320;-76
2023/05/06 06:14:21;;;;;;;;;;;;;;;9.52;70.17;100288.04;134255;1298;22443;-76
2023/05/06 06:17:25;;;;;;;7.80;5.70;;;;;;;9.56;70.09;100290.67;134126;1301;22440;-76
2023/05/06 06:20:28;;;;;;;11.80;6.30;;;;;;;9.57;70.09;100293.90;134111;1301;23695;-76
2023/05/06 06:23:29;;;;;;;11.30;5.50;;;;;;;9.58;70.08;100293.38;134090;1297;22384;-76
2023/05/06 06:26:29;;;;;;;;;;;;;;;9.61;70.08;100291.20;134154;1298;23182;-76
2023/05/06 06:29:33;;;;;;;8.70;5.60;;;;;;;9.62;70.10;100288.96;134118;1300;22154;-76
2023/05/06 06:32:34;;;;;;;9.80;6.20;;;;;;;9.63;70.08;100287.63;134205;1297;23077;-76
2023/05/06 06:35:56;;;;;;;9.50;5.60;;;;;;;9.64;69.88;100290.66;134257;1297;22445;-76
2023/05/06 06:38:57;;;;;;;7.10;5.40;;;;;;;9.65;69.92;100298.68;134269;1297;22306;-76
2023/05/06 06:42:30;;;;;;;11.00;6.30;;;;;;;9.71;69.87;100309.42;134105;1287;22358;-76
2023/05/06 06:46:12;;;;;;;11.30;6.00;;;;;;;9.77;69.64;100322.05;134056;1301;22543;-76
2023/05/06 06:49:24;;;;;;;7.70;5.10;;;;;;;9.86;69.66;100328.07;134146;1305;22374;-76
2023/05/06 06:52:28;;;;;;;10.60;5.30;;;;;;;9.90;69.70;100329.41;134233;1298;22323;-77
2023/05/06 06:55:29;;;;;;;15.90;5.90;;;;;;;9.92;69.60;100326.41;134197;1305;23520;-76
2023/05/06 06:58:40;;;;;;;10.70;5.30;;;;;;;9.92;69.69;100331.68;134091;1301;23451;-76
2023/05/06 07:01:46;;;;;;;9.60;6.60;;;;;;;9.90;69.74;100328.86;134238;1297;22357;-77
2023/05/06 07:04:55;;;;;;;9.50;6.00;;;;;;;9.87;69.77;100317.80;134265;1297;23058;-77
2023/05/06 07:08:26;;;;;;;9.00;6.10;;;;;;;9.84;69.98;100317.98;134224;1297;22357;-77
2023/05/06 07:12:08;;;;;;;10.20;6.10;;;;;;;9.80;70.11;100319.31;133980;1298;22419;-76
2023/05/06 07:15:09;;;;;;;8.40;5.80;;;;;;;9.78;70.27;100321.09;134226;1297;22376;-76
2023/05/06 07:18:10;;;;;;;15.00;7.10;;;;;;;9.74;70.34;100312.17;134226;1297;22370;-76
2023/05/06 07:21:24;;;;;;;14.00;6.30;;;;;;;9.69;70.78;100310.14;134221;1297;23082;-76
2023/05/06 07:24:32;;;;;;;9.50;6.20;;;;;;;9.66;70.93;100307.16;134202;1298;22236;-76
2023/05/06 07:27:57;;;;;;;11.40;6.20;;;;;;;9.61;70.95;100302.47;134200;1297;22361;-76
2023/05/06 07:31:42;;;;;;;8.80;6.40;;;;;;;9.58;71.34;100300.02;134250;1297;22361;-76
2023/05/06 07:34:45;;;;;;;9.80;6.00;;;;;;;9.58;71.29;100296.86;134219;1297;22401;-77
2023/05/06 07:37:45;;;;;;;12.60;6.40;;;;;;;9.57;71.63;100301.45;134217;1297;22133;-76
2023/05/06 07:40:55;;;;;;;;;;;;;;;9.57;71.78;100302.43;134249;1297;23292;-76
2023/05/06 07:48:03;;;;;;;10.30;6.30;;;;;;;9.52;72.43;100297.27;134189;1297;22446;-76
2023/05/06 07:51:04;;;;;;;10.70;6.50;;;;;;;9.43;73.12;100292.81;131870;1297;2957961;-76
2023/05/06 07:54:25;;;;;;;;;;;;;;;9.34;73.40;100295.64;134113;1301;22465;-76
2023/05/06 07:57:35;;;;;;;13.10;7.50;;;;;;;9.28;73.97;100286.45;134229;1297;23038;-76
2023/05/06 08:00:49;;;;;;;13.50;6.60;;;;;;;9.21;74.53;100282.86;134261;1294;22940;-75
2023/05/06 08:04:06;;;;;;;14.70;7.60;;;;;;;9.13;75.27;100283.82;134196;1298;22525;-75
2023/05/06 08:07:12;;;;;;;13.60;8.40;;;;;;;9.04;76.04;100281.77;134106;1298;23144;-75
2023/05/06 08:10:18;;;;;;;15.70;7.80;;;;;;;9.01;75.88;100279.98;134058;1297;22436;-75
2023/05/06 08:14:11;;;;;;;;;;;;;;;;;;;;;
2023/05/06 08:17:33;;;;;;;;;;;;;;;;;;;;;
2023/05/06 08:20:45;;;;;;;11.50;7.10;;;;;;;8.90;77.57;100265.13;134253;1297;22376;-74
2023/05/06 08:24:18;;;;;;;;;;;;;;;;;;;;;
2023/05/06 08:27:31;;;;;;;14.60;8.30;;;;;;;8.85;78.35;100264.23;134208;1297;22264;-74
2023/05/06 08:30:51;;;;;;;;;;;;;;;;;;;;;
2023/05/06 08:34:19;;;;;;;14.80;8.20;;;;;;;8.75;80.26;100244.36;134218;1297;22378;-74
2023/05/06 08:37:58;;;;;;;;;;;;;;;;;;;;;
2023/05/06 08:41:28;;;;;;;15.40;8.20;;;;;;;8.68;80.57;100255.13;134240;1297;22245;-74
2023/05/06 08:48:36;;;;;;;;;;;;;;;;;;;;;
2023/05/06 08:51:58;;;;;;;;;;;;;;;;;;;;;
2023/05/06 08:55:18;;;;;;;12.60;7.80;;;;;;;8.59;81.79;100252.69;133987;1298;22321;-74
2023/05/06 08:58:23;;;;;;;12.10;8.20;;;;;;;8.57;81.63;100257.28;134237;1298;22402;-74
2023/05/06 09:01:54;;;;;;;15.00;8.60;;;;;;;8.57;81.69;100252.26;134233;1297;22441;-74
2023/05/06 09:05:29;;;;;;;16.70;8.30;;;;;;;8.58;82.12;100266.52;134222;1297;22434;-74
2023/05/06 09:13:13;;;;;;;11.80;8.00;;;;;;;8.61;82.31;100275.44;134167;1298;23089;-74
2023/05/06 09:16:29;;;;;;;15.80;8.90;;;;;;;8.63;82.72;100267.59;134188;1298;22251;-74
2023/05/06 09:19:37;;;;;;;15.50;8.70;;;;;;;8.65;82.48;100261.63;134219;1298;22369;-75
2023/05/06 09:22:50;;;;;;;10.80;7.20;;;;;;;8.69;83.01;100264.05;134205;1298;22466;-75
2023/05/06 09:26:22;;;;;;;;;;;;;;;;;;;;;
2023/05/06 09:29:59;;;;;;;21.10;10.80;;;;;;;8.74;82.96;100284.50;134201;1297;22280;-74
2023/05/06 09:33:41;;;;;;;;;;;;;;;;;;;;;
2023/05/06 09:37:25;;;;;;;;;;;;;;;;;;;;;
2023/05/06 09:40:49;;;;;;;15.10;8.50;;;;;;;8.86;83.68;100259.93;134129;1298;22370;-74
2023/05/06 09:43:54;;;;;;;11.10;7.90;;;;;;;8.87;83.79;100261.50;134116;1298;23063;-74
2023/05/06 09:47:05;;;;;;;;;;;;;;;;;;;;;
2023/05/06 09:50:09;;;;;;;11.80;8.40;;;;;;;8.91;83.96;100257.96;134233;1298;22349;-74
2023/05/06 09:53:17;;;;;;;15.60;8.30;;;;;;;8.96;84.07;100257.48;134209;1305;23446;-74
2023/05/06 09:56:22;;;;;;;17.00;10.20;;;;;;;9.03;84.50;100259.77;134241;1298;22434;-74
2023/05/06 10:00:10;;;;;;;13.20;7.80;;;;;;;9.10;84.54;100252.77;134091;1298;22489;-74
2023/05/06 10:03:21;;;;;;;18.60;8.70;;;;;;;9.25;84.79;100259.94;134183;1305;23382;-74
2023/05/06 10:06:23;;;;;;;13.90;9.30;;;;;;;9.34;85.03;100263.72;134208;1297;23195;-75
2023/05/06 10:09:25;;;;;;;14.90;9.00;;;;;;;9.44;85.03;100262.02;134228;1297;22395;-75
2023/05/06 10:12:40;;;;;;;15.80;9.10;;;;;;;9.54;84.79;100270.93;134217;1298;22397;-75
2023/05/06 10:19:49;;;;;;;;;;;;;;;;;;;;;
2023/05/06 10:23:09;;;;;;;15.20;10.50;;;;;;;9.57;84.24;100269.69;134086;1298;22293;-75
2023/05/06 10:26:36;;;;;;;;;;;;;;;;;;;;;
2023/05/06 10:29:52;;;;;;;;;;;;;;;;;;;;;
2023/05/06 10:33:04;;;;;;;15.40;10.20;;;;;;;9.56;84.18;100265.41;134204;1297;22976;-75
2023/05/06 10:36:36;;;;;;;11.00;7.90;;;;;;;9.56;83.94;100264.16;134098;1305;22480;-75
2023/05/06 10:40:10;;;;;;;12.50;7.90;;;;;;;9.57;84.04;100259.43;134077;1298;22435;-75
2023/05/06 10:44:23;;;;;;;;;;;;;;;;;;;;;
2023/05/06 10:48:18;;;;;;;13.50;8.80;;;;;;;9.53;83.90;100262.02;134075;1297;22446;-75
2023/05/06 10:52:23;;;;;;;12.50;8.50;;;;;;;9.52;84.10;100256.06;133967;1298;22579;-75
2023/05/06 10:55:32;;;;;;;12.40;8.30;;;;;;;9.55;84.02;100263.76;133757;1301;22440;-75
2023/05/06 10:59:11;;;;;;;;;;;;;;;;;;;;;
2023/05/06 11:02:47;;;;;;;12.20;8.20;;;;;;;9.57;84.00;100271.78;134042;1298;22145;-75
2023/05/06 11:06:04;;;;;;;11.40;7.80;;;;;;;9.60;84.07;100269.55;134172;1298;22365;-75
2023/05/06 11:09:30;;;;;;;11.00;7.50;;;;;;;9.60;84.15;100268.89;134080;1298;22470;-75
2023/05/06 11:12:54;;;;;;;15.40;10.80;;;;;;;9.58;84.05;100268.77;134166;1304;22433;-75
2023/05/06 11:16:06;;;;;;;11.40;8.00;;;;;;;9.60;84.34;100270.66;134087;1298;22377;-75
2023/05/06 11:19:23;;;;;;;14.50;8.80;;;;;;;9.60;84.61;100267.98;134224;1297;23158;-75
2023/05/06 11:23:02;;;;;;;;;;;;;;;;;;;;;
2023/05/06 11:26:26;;;;;;;11.00;7.90;;;;;;;9.61;84.90;100268.95;134107;1301;23128;-75
2023/05/06 11:33:35;;;;;;;14.30;9.80;;;;;;;9.62;85.09;100268.79;134156;1297;22211;-75
2023/05/06 11:37:25;;;;;;;16.00;9.40;;;;;;;9.63;85.34;100273.37;134155;1298;25230;-75
2023/05/06 11:41:04;;;;;;;18.50;10.30;;;;;;;9.68;85.25;100283.30;134208;1297;22405;-74
2023/05/06 11:44:44;;;;;;;14.40;9.40;;;;;;;9.72;85.46;100289.71;133993;1299;22354;-74
2023/05/06 11:48:25;;;;;;;15.00;9.30;;;;;;;9.81;85.49;100290.04;134195;1303;23085;-75
2023/05/06 11:51:33;;;;;;;12.60;8.90;;;;;;;9.91;85.74;100283.89;134187;1298;22384;-74
2023/05/06 11:55:08;;;;;;;12.40;8.50;;;;;;;9.96;85.64;100285.70;134209;1298;22357;-74
2023/05/06 11:58:33;;;;;;;14.40;10.40;;;;;;;9.99;85.74;100278.45;133921;1305;22453;-74
2023/05/06 12:02:01;;;;;;;12.70;9.40;;;;;;;10.04;85.60;100278.48;134077;1298;23204;-75
2023/05/06 12:05:48;;;;;;;;;;;;;;;;;;;;;
2023/05/06 12:09:02;;;;;;;13.90;8.90;;;;;;;10.12;85.76;100280.32;134226;1304;22590;-74
2023/05/06 12:13:04;;;;;;;11.70;9.30;;;;;;;10.20;85.81;100287.83;134192;1301;22348;-74
2023/05/06 12:16:10;;;;;;;15.00;9.90;;;;;;;10.26;85.96;100297.63;134130;1298;22533;-74
2023/05/06 12:19:22;;;;;;;12.20;8.50;;;;;;;10.30;85.76;100304.80;134100;1298;22319;-75
2023/05/06 12:23:20;;;;;;;19.10;9.90;;;;;;;10.27;85.47;100302.94;134063;1301;22238;-75
2023/05/06 12:26:39;;;;;;;;;;;;;;;;;;;;;
2023/05/06 12:30:07;;;;;;;;;;;;;;;;;;;;;
2023/05/06 12:33:59;;;;;;;;;;;;;;;;;;;;;
2023/05/06 12:37:56;;;;;;;12.70;9.70;;;;;;;10.53;85.79;100292.42;134122;1301;22402;-75
2023/05/06 12:42:01;;;;;;;;;;;;;;;;;;;;;
2023/05/06 12:45:53;;;;;;;;;;;;;;;;;;;;;
2023/05/06 12:49:40;;;;;;;;;;;;;;;;;;;;;
2023/05/06 12:53:15;;;;;;;19.90;9.80;;;;;;;10.76;85.27;100301.13;134029;1298;22379;-75
2023/05/06 12:56:32;;;;;;;;;;;;;;;;;;;;;
2023/05/06 13:00:21;;;;;;;;;;;;;;;;;;;;;
2023/05/06 13:03:37;;;;;;;13.90;10.00;;;;;;;10.73;85.18;100299.58;134217;1298;22396;-75
2023/05/06 13:06:55;;;;;;;;;;;;;;;;;;;;;
2023/05/06 13:10:23;;;;;;;16.60;11.00;;;;;;;10.64;85.09;100306.48;134230;1299;22396;-75
2023/05/06 13:13:36;;;;;;;15.10;10.40;;;;;;;10.62;85.08;100304.09;134204;1299;23217;-75
2023/05/06 13:17:39;;;;;;;14.40;10.00;;;;;;;10.62;85.26;100307.60;134242;1302;22475;-75
2023/05/06 13:20:55;;;;;;;16.20;11.00;;;;;;;10.64;85.22;100303.93;134233;1301;22420;-75
2023/05/06 13:24:10;;;;;;;;;;;;;;;;;;;;;
2023/05/06 13:28:48;;;;;;;21.90;13.70;;;;;;;10.63;85.71;100296.77;134219;1298;22414;-74
2023/05/06 13:32:02;;;;;;;;;;;;;;;;;;;;;
2023/05/06 13:35:12;;;;;;;18.40;12.90;;;;;;;10.50;86.21;100296.52;134216;1299;22161;-75
2023/05/06 13:38:59;;;;;;;20.60;15.40;;;;;;;10.45;86.42;100292.95;134236;1298;22357;-75
2023/05/06 13:42:36;;;;;;;20.90;14.30;;;;;;;10.32;86.63;100296.25;134141;1298;22450;-75
2023/05/06 13:46:11;;;;;;;20.80;14.00;;;;;;;10.24;86.85;100293.84;134212;1298;22386;-75
2023/05/06 13:49:25;;;;;;;20.20;14.30;;;;;;;10.24;87.07;100295.86;134259;1289;22231;-75
2023/05/06 13:53:30;;;;;;;;;;;;;;;;;;;;;
2023/05/06 13:57:00;;;;;;;20.30;12.70;;;;;;;10.12;88.27;100287.59;134218;1297;23131;-75
2023/05/06 14:01:00;;;;;;;;;;;;;;;;;;;;;
2023/05/06 14:04:58;;;;;;;18.90;11.90;;;;;;;9.97;88.87;100276.04;134225;1298;22348;-75
2023/05/06 14:08:32;;;;;;;18.80;12.20;;;;;;;10.00;88.67;100285.46;133990;1298;22371;-75
2023/05/06 14:11:44;;;;;;;19.50;12.90;;;;;;;9.99;89.59;100277.96;134210;1297;22346;-75
2023/05/06 14:16:15;;;;;;;22.60;13.80;;;;;;;9.92;89.68;100283.13;134181;1297;22951;-75
2023/05/06 14:19:36;;;;;;;20.40;12.70;;;;;;;9.97;89.73;100292.63;134114;1298;23117;-75
2023/05/06 14:23:29;;;;;;;19.20;13.30;;;;;;;9.99;89.67;100292.04;134105;1297;22236;-75
2023/05/06 14:26:44;;;;;;;16.80;12.70;;;;;;;9.94;89.49;100287.31;134219;1298;22283;-75
2023/05/06 14:30:35;;;;;;;34.30;14.00;;;;;;;9.88;89.37;100290.40;134223;1305;23444;-75
2023/05/06 14:33:48;;;;;;;18.50;13.30;;;;;;;9.85;89.53;100294.52;134226;1298;22743;-75
2023/05/06 14:38:15;;;;;;;18.80;14.00;;;;;;;9.90;89.87;100293.58;134206;1297;23113;-75
2023/05/06 14:41:34;;;;;;;;;;;;;;;;;;;;;
2023/05/06 14:45:31;;;;;;;;;;;;;;;;;;;;;
2023/05/06 14:48:43;;;;;;;33.80;25.20;;;;;;;9.78;90.76;100300.42;134226;1298;22446;-75
2023/05/06 14:52:20;;;;;;;21.80;16.70;;;;;;;9.81;90.69;100301.66;134232;1298;22347;-75
2023/05/06 14:55:33;;;;;;;24.60;15.70;;;;;;;9.85;90.56;100303.94;134211;1305;22460;-75
2023/05/06 14:59:04;;;;;;;;;;;;;;;;;;;;;
2023/05/06 15:03:06;;;;;;;;;;;;;;;;;;;;;
2023/05/06 15:06:55;;;;;;;;;;;;;;;;;;;;;
2023/05/06 15:11:02;;;;;;;34.10;21.50;;;;;;;9.98;90.54;100312.35;134200;1297;22345;-75
2023/05/06 15:14:01;;;;;;;25.90;18.00;;;;;;;10.00;90.31;100314.39;134101;1298;23204;-75
2023/05/06 15:17:10;;;;;;;26.80;16.50;;;;;;;10.04;90.31;100317.01;134098;1298;22439;-75
2023/05/06 15:20:15;;;;;;;28.40;17.10;;;;;;;10.08;90.26;100319.84;134230;1298;23096;-75
2023/05/06 15:23:24;;;;;;;25.10;17.20;;;;;;;10.07;90.14;100323.97;134217;1297;23823;-75
2023/05/06 15:26:55;;;;;;;;;;;;;;;;;;;;;
2023/05/06 15:30:19;;;;;;;20.60;15.10;;;;;;;10.03;90.02;100319.04;134224;1298;23133;-74
2023/05/06 15:33:22;;;;;;;29.00;18.00;;;;;;;9.99;89.96;100320.02;134218;1298;22328;-74
2023/05/06 15:37:17;;;;;;;;;;;;;;;;;;;;;
2023/05/06 15:41:25;;;;;;;;;;;;;;;;;;;;;
2023/05/06 15:45:42;;;;;;;;;;;;;;;;;;;;;
2023/05/06 15:49:04;;;;;;;;;;;;;;;;;;;;;
2023/05/06 15:56:35;;;;;;;;;;;;;;;;;;;;;
2023/05/06 16:01:16;;;;;;;22.10;16.90;;;;;;;9.80;90.71;100343.27;134145;1297;22737;-75
2023/05/06 16:05:08;;;;;;;24.10;18.70;;;;;;;9.84;90.76;100344.29;133917;1297;22287;-74
2023/05/06 16:08:42;;;;;;;;;;;;;;;;;;;;;
2023/05/06 16:12:36;;;;;;;;;;;;;;;;;;;;;
2023/05/06 16:17:16;;;;;;;;;;;;;;;;;;;;;
2023/05/06 16:20:36;;;;;;;;;;;;;;;;;;;;;
2023/05/06 16:24:46;;;;;;;30.40;21.40;;;;;;;9.84;91.10;100351.03;134213;1297;23126;-75
2023/05/06 16:28:22;;;;;;;31.20;19.90;;;;;;;9.81;90.92;100351.65;134131;1297;22373;-75
2023/05/06 16:31:25;;;;;;;19.30;15.40;;;;;;;9.73;90.86;100344.20;134172;1297;22455;-75
2023/05/06 16:35:30;;;;;;;;;;;;;;;;;;;;;
2023/05/06 16:39:02;;;;;;;23.80;17.00;;;;;;;9.49;91.00;100347.38;133945;1298;22383;-74
2023/05/06 16:43:38;;;;;;;21.30;16.80;;;;;;;9.42;91.06;100352.63;134240;1297;22467;-75
2023/05/06 16:50:18;;;;;;;18.70;13.50;;;;;;;9.18;91.42;100349.16;134176;1298;22427;-74
2023/05/06 16:53:46;;;;;;;18.30;12.50;;;;;;;9.20;91.70;100350.02;134113;1297;22193;-74
2023/05/06 16:57:39;;;;;;;;;;;;;;;;;;;;;
2023/05/06 17:00:59;;;;;;;;;;;;;;;;;;;;;
2023/05/06 17:04:42;;;;;;;31.00;20.60;;;;;;;9.25;91.48;100366.52;134224;1298;23313;-75
2023/05/06 17:08:02;;;;;;;;;;;;;;;;;;;;;
2023/05/06 17:11:59;;;;;;;;;;;;;;;;;;;;;
2023/05/06 17:15:32;;;;;;;17.90;12.00;;;;;;;9.05;91.48;100359.65;134082;1297;23125;-74
2023/05/06 17:27:20;;;;;;;13.30;10.20;;;;;;;8.96;91.78;100376.38;134128;1297;23064;-74
2023/05/06 17:30:40;;;;;;;9.90;7.80;;;;;;;8.99;91.66;100380.14;134032;1298;23360;-74
2023/05/06 17:34:26;;;;;;;;;;;;;;;;;;;;;
2023/05/06 17:38:21;;;;;;;35.10;26.90;;;;;;;8.90;91.44;100382.80;134203;1297;22399;-74
2023/05/06 17:41:48;;;;;;;;;;;;;;;;;;;;;
2023/05/06 17:46:09;;;;;;;;;;;;;;;;;;;;;
2023/05/06 17:49:54;;;;;;;49.60;24.60;;;;;;;8.78;91.78;100389.27;134227;1297;22376;-74
2023/05/06 17:53:26;;;;;;;125.50;42.90;;;;;;;8.76;91.60;100388.73;134194;1298;22367;-74
2023/05/06 17:56:51;;;;;;;58.70;19.80;;;;;;;8.70;91.58;100396.01;134197;1297;22257;-74
2023/05/06 18:00:33;;;;;;;;;;;;;;;;;;;;;